Terminal Aerodrome Forecast
Issued by NWS

Home | Current Version | Previous Version | Text Only | Print | Product List | Glossary On
Versions: 1 2 3 4 5 6 7 8 9 10 11 12 13 14 15 16 17 18 19
000
FTUS42 KMLB 220547
TAFSUA
TAF
KSUA 220547Z 2206/2306 13008KT P6SM BKN040 OVC060
     FM221500 14015G22KT P6SM VCSH BKN025 OVC050
      TEMPO 2216/2220 3SM SHRA OVC010
     FM222000 10010KT 5SM -RA BR OVC015
      TEMPO 2220/2224 2SM SHRA OVC008
     FM230100 13012KT P6SM SCT020 OVC050
      TEMPO 2301/2304 5SM SHRA BKN020 OVC040
     FM230500 16007KT P6SM SCT025 OVC050=

USA.gov is the U.S. government's official web portal to all federal, state and local government web resources and services.